Time;durP1;ratioP1;P1;durP2;ratioP2;P2;SDS_P1;SDS_P2;PMS_P1;PMS_P2;Temp;Humidity;BMP_temperature;BMP_pressure;BME280_temperature;BME280_humidity;BME280_pressure;Samples;Min_cycle;Max_cycle;Signal;HPM_P1;HPM_P2
2022/06/29 00:02:21;;;;;;;6.73;3.13;;;;;;;17.63;60.83;101509.94;5049967;28;20036;-77
2022/06/29 00:04:47;;;;;;;5.63;2.90;;;;;;;17.62;61.15;101506.41;5049682;28;20303;-78
2022/06/29 00:07:12;;;;;;;5.47;2.70;;;;;;;17.58;61.18;101513.06;5049793;28;20021;-79
2022/06/29 00:09:37;;;;;;;6.25;3.10;;;;;;;17.56;61.19;101515.88;5050220;28;20109;-78
2022/06/29 00:12:03;;;;;;;5.53;2.95;;;;;;;17.53;60.95;101508.13;5050073;28;20175;-77
2022/06/29 00:14:29;;;;;;;5.13;2.72;;;;;;;17.52;61.09;101506.44;5049480;28;20560;-78
2022/06/29 00:16:54;;;;;;;4.75;2.75;;;;;;;17.47;61.51;101506.03;5049771;28;20033;-78
2022/06/29 00:19:19;;;;;;;6.43;3.00;;;;;;;17.48;61.59;101504.19;5050100;28;20024;-78
2022/06/29 00:21:48;;;;;;;6.32;2.90;;;;;;;17.42;62.14;101494.03;5049329;28;20279;-78
2022/06/29 00:24:13;;;;;;;5.27;2.70;;;;;;;17.47;61.40;101502.47;5049684;28;20021;-78
2022/06/29 00:26:38;;;;;;;5.63;3.00;;;;;;;17.40;61.99;101496.84;5050179;28;20607;-78
2022/06/29 00:29:04;;;;;;;4.65;2.97;;;;;;;17.35;62.16;101491.94;5049246;28;20108;-78
2022/06/29 00:31:29;;;;;;;6.97;3.25;;;;;;;17.33;61.57;101483.16;5049662;28;20035;-78
2022/06/29 00:33:57;;;;;;;6.23;2.80;;;;;;;17.30;62.09;101490.66;5042052;28;20504;-78
2022/06/29 00:36:23;;;;;;;5.10;3.15;;;;;;;17.27;62.92;101493.66;5029729;28;20697;-78
2022/06/29 00:38:48;;;;;;;4.80;2.90;;;;;;;17.25;63.05;101491.09;5029676;28;20029;-77
2022/06/29 00:41:13;;;;;;;8.00;3.28;;;;;;;17.22;62.79;101494.09;5029616;28;20382;-77
2022/06/29 00:43:45;;;;;;;8.20;2.92;;;;;;;17.17;62.69;101493.69;5047002;28;20048;-78
2022/06/29 00:46:10;;;;;;;7.03;2.90;;;;;;;17.15;62.77;101485.78;5049182;28;20079;-78
2022/06/29 00:48:36;;;;;;;6.53;2.70;;;;;;;17.14;63.27;101481.41;5049412;28;20017;-78
2022/06/29 00:51:03;;;;;;;3.42;2.65;;;;;;;17.12;63.25;101482.53;5048076;28;20029;-77
2022/06/29 00:53:34;;;;;;;9.02;2.97;;;;;;;17.06;64.31;101486.63;5048726;28;20036;-78
2022/06/29 00:56:01;;;;;;;7.40;2.90;;;;;;;17.06;64.34;101472.38;5049806;28;20037;-78
2022/06/29 00:58:27;;;;;;;6.22;2.90;;;;;;;16.99;63.61;101474.78;5048511;28;20582;-78
2022/06/29 01:00:53;;;;;;;7.20;3.10;;;;;;;16.96;64.47;101475.06;5049043;28;20039;-78
2022/06/29 01:03:19;;;;;;;5.70;2.65;;;;;;;16.90;64.85;101462.22;5049365;28;20039;-78
2022/06/29 01:05:44;;;;;;;7.88;3.13;;;;;;;16.94;64.71;101467.19;5049553;28;20598;-77
2022/06/29 01:08:11;;;;;;;4.55;2.65;;;;;;;16.86;65.16;101459.00;5049139;28;20021;-78
2022/06/29 01:10:36;;;;;;;5.85;3.08;;;;;;;16.83;65.53;101467.28;5046912;28;20477;-78
2022/06/29 01:13:02;;;;;;;5.90;3.60;;;;;;;16.81;64.58;101478.16;5029134;28;20021;-78
2022/06/29 01:15:27;;;;;;;7.50;3.30;;;;;;;16.75;65.22;101468.03;5029324;28;20286;-78
2022/06/29 01:17:53;;;;;;;5.93;3.10;;;;;;;16.74;65.49;101468.16;5032996;28;20060;-78
2022/06/29 01:20:18;;;;;;;5.53;3.38;;;;;;;16.64;65.88;101455.59;5044114;28;20033;-78
2022/06/29 01:22:43;;;;;;;4.43;3.35;;;;;;;16.64;65.75;101471.69;5029386;28;20025;-78
2022/06/29 01:25:09;;;;;;;3.13;2.83;;;;;;;16.62;66.78;101467.44;5029966;28;20032;-78
2022/06/29 01:27:34;;;;;;;8.02;3.58;;;;;;;16.61;65.80;101471.13;5032247;28;20121;-78
2022/06/29 01:30:00;;;;;;;5.20;3.20;;;;;;;16.54;65.44;101457.44;5049247;28;20029;-78
2022/06/29 01:32:25;;;;;;;7.90;3.35;;;;;;;16.52;66.67;101456.75;5049000;28;20059;-78
2022/06/29 01:34:52;;;;;;;3.85;3.17;;;;;;;16.54;66.98;101461.97;5039426;28;20136;-77
2022/06/29 01:37:17;;;;;;;8.57;3.30;;;;;;;16.51;67.54;101467.59;5043887;28;20443;-76
2022/06/29 01:39:43;;;;;;;8.20;3.50;;;;;;;16.45;67.81;101467.19;5032407;28;20053;-76
2022/06/29 01:42:09;;;;;;;5.85;3.20;;;;;;;16.42;67.63;101464.78;5034893;28;20033;-76
2022/06/29 01:44:36;;;;;;;8.73;3.33;;;;;;;16.39;68.18;101464.22;5034355;28;20376;-76
2022/06/29 01:47:03;;;;;;;8.15;3.50;;;;;;;16.32;68.55;101455.03;5036103;28;20079;-76
2022/06/29 01:49:28;;;;;;;4.05;3.30;;;;;;;16.31;69.15;101456.88;5034497;28;20476;-76
2022/06/29 01:51:55;;;;;;;4.80;3.40;;;;;;;16.25;69.13;101450.25;5034315;28;20067;-76
2022/06/29 01:54:21;;;;;;;5.53;3.03;;;;;;;16.26;69.18;101440.38;5036157;28;20391;-77
2022/06/29 01:56:46;;;;;;;5.55;3.40;;;;;;;16.21;69.17;101445.31;5054596;28;20103;-77
2022/06/29 01:59:11;;;;;;;5.78;3.45;;;;;;;16.19;69.39;101444.59;5053843;28;20537;-76
2022/06/29 02:01:37;;;;;;;5.43;3.30;;;;;;;16.16;69.56;101450.22;5054777;28;20033;-76
2022/06/29 02:04:03;;;;;;;4.90;3.55;;;;;;;16.16;69.35;101444.88;5055576;28;20072;-77
2022/06/29 02:06:28;;;;;;;5.55;3.15;;;;;;;16.13;69.09;101437.09;5055312;28;20356;-76
2022/06/29 02:08:53;;;;;;;4.78;3.78;;;;;;;16.09;70.14;101440.06;5049930;28;20087;-76
2022/06/29 02:11:19;;;;;;;4.85;3.40;;;;;;;16.05;69.27;101446.69;5034255;28;20388;-76
2022/06/29 02:13:46;;;;;;;5.43;3.72;;;;;;;16.03;69.84;101440.59;5039384;28;20531;-77
2022/06/29 02:16:11;;;;;;;5.40;3.63;;;;;;;16.00;69.64;101437.38;5051748;28;20032;-76
2022/06/29 02:18:37;;;;;;;7.80;4.07;;;;;;;15.96;70.35;101435.97;5053079;28;20395;-76
2022/06/29 02:21:02;;;;;;;7.03;4.10;;;;;;;15.94;70.64;101448.63;5053415;28;20029;-76
2022/06/29 02:23:28;;;;;;;6.88;4.05;;;;;;;15.92;70.15;101443.44;5053110;28;21082;-76
2022/06/29 02:25:53;;;;;;;7.53;4.05;;;;;;;15.85;70.81;101436.91;5045118;28;20068;-77
2022/06/29 02:28:18;;;;;;;6.68;3.88;;;;;;;15.86;70.66;101434.09;5053364;28;20028;-77
2022/06/29 02:36:11;;;;;;;5.47;4.25;;;;;;;15.86;70.38;101438.63;5056928;28;20529;-77
2022/06/29 02:38:37;;;;;;;5.75;3.90;;;;;;;15.85;69.91;101442.25;5045174;28;20034;-76
2022/06/29 02:41:02;;;;;;;7.27;4.23;;;;;;;15.81;69.69;101427.47;5055788;28;20184;-77
2022/06/29 02:43:28;;;;;;;7.43;4.30;;;;;;;15.82;69.71;101435.38;5056720;28;20681;-77
2022/06/29 02:45:53;;;;;;;7.35;5.03;;;;;;;15.81;69.20;101428.31;5056726;28;20434;-77
2022/06/29 02:48:19;;;;;;;8.25;4.65;;;;;;;15.77;69.23;101421.53;5056295;28;20040;-77
2022/06/29 02:50:44;;;;;;;7.55;4.90;;;;;;;15.79;69.01;101426.75;5056501;28;20079;-77
2022/06/29 02:53:10;;;;;;;6.53;4.70;;;;;;;15.77;69.50;101426.91;5054121;28;20047;-77
2022/06/29 02:55:35;;;;;;;6.93;4.90;;;;;;;15.75;68.94;101415.41;5056358;28;20061;-77
2022/06/29 02:58:00;;;;;;;6.82;5.03;;;;;;;15.73;70.39;101412.03;5055289;28;20025;-77
2022/06/29 03:00:26;;;;;;;8.48;4.85;;;;;;;15.77;69.84;101418.88;5055954;28;20495;-77
2022/06/29 03:02:51;;;;;;;7.80;4.75;;;;;;;15.71;69.99;101408.66;5054642;28;20064;-78
2022/06/29 03:05:16;;;;;;;8.90;4.90;;;;;;;15.73;69.62;101412.88;5055288;28;20117;-77
2022/06/29 03:07:42;;;;;;;8.25;4.55;;;;;;;15.72;69.50;101416.56;5055894;28;20025;-77
2022/06/29 03:10:07;;;;;;;6.60;4.97;;;;;;;15.71;69.64;101416.69;5055796;28;20028;-77
2022/06/29 03:12:33;;;;;;;10.38;4.97;;;;;;;15.69;70.83;101407.97;5056053;28;20159;-77
2022/06/29 03:14:59;;;;;;;7.80;4.80;;;;;;;15.69;69.65;101405.28;5055979;28;20479;-77
2022/06/29 03:17:24;;;;;;;7.68;5.07;;;;;;;15.68;70.02;101409.78;5055911;28;20649;-77
2022/06/29 03:19:49;;;;;;;8.95;5.40;;;;;;;15.68;69.23;101404.41;5043105;28;20025;-77
2022/06/29 03:22:14;;;;;;;8.13;5.33;;;;;;;15.65;71.21;101398.50;5055144;28;20036;-77
2022/06/29 03:24:40;;;;;;;7.25;5.10;;;;;;;15.64;70.40;101400.34;5054958;28;20353;-77
2022/06/29 03:27:05;;;;;;;10.32;5.38;;;;;;;15.66;69.66;101400.19;5056376;28;20043;-77
2022/06/29 03:29:30;;;;;;;8.10;4.65;;;;;;;15.63;69.87;101401.31;5055475;28;20027;-77
2022/06/29 03:31:56;;;;;;;6.65;5.65;;;;;;;15.64;70.99;101397.66;5055729;28;20108;-76
2022/06/29 03:34:21;;;;;;;6.25;4.90;;;;;;;15.65;70.79;101391.28;5055510;28;20025;-77
2022/06/29 03:36:46;;;;;;;11.38;5.50;;;;;;;15.65;70.43;101390.44;5055984;28;20021;-76
2022/06/29 03:39:12;;;;;;;7.30;5.00;;;;;;;15.65;69.98;101393.97;5055809;28;20033;-77
2022/06/29 03:41:37;;;;;;;8.18;5.10;;;;;;;15.64;71.04;101392.28;5054559;28;20032;-77
2022/06/29 03:44:05;;;;;;;6.13;4.80;;;;;;;15.59;70.96;101380.28;5055462;28;20079;-77
2022/06/29 03:46:31;;;;;;;6.65;5.45;;;;;;;15.61;71.22;101381.03;5055799;28;20037;-77
2022/06/29 03:48:56;;;;;;;6.75;5.18;;;;;;;15.59;70.44;101380.28;5055638;28;20420;-77
2022/06/29 03:51:21;;;;;;;8.40;5.20;;;;;;;15.57;71.32;101375.09;5049144;28;20376;-77
2022/06/29 03:53:47;;;;;;;7.43;5.45;;;;;;;15.58;70.96;101381.28;5055838;28;20029;-77
2022/06/29 03:56:12;;;;;;;7.57;5.18;;;;;;;15.59;71.49;101383.84;5054204;28;20119;-77
2022/06/29 03:58:38;;;;;;;7.78;5.10;;;;;;;15.58;72.22;101374.09;5055386;28;20525;-77
2022/06/29 04:01:04;;;;;;;8.57;5.63;;;;;;;15.61;71.38;101370.31;5055122;28;20021;-77
2022/06/29 04:03:29;;;;;;;6.20;5.53;;;;;;;15.59;71.43;101377.59;5055114;28;20025;-77
2022/06/29 04:05:54;;;;;;;7.88;4.90;;;;;;;15.59;71.81;101361.53;5049931;28;20478;-77
2022/06/29 04:08:20;;;;;;;9.88;5.38;;;;;;;15.63;72.00;101368.34;5055629;28;20021;-77
2022/06/29 04:10:45;;;;;;;7.68;5.20;;;;;;;15.62;72.02;101369.31;5044695;28;20055;-77
2022/06/29 04:13:10;;;;;;;7.07;5.70;;;;;;;15.63;71.71;101368.34;5055797;28;20029;-77
2022/06/29 04:15:35;;;;;;;7.75;5.30;;;;;;;15.59;72.48;101358.88;5049171;28;20399;-77
2022/06/29 04:18:02;;;;;;;7.38;5.13;;;;;;;15.63;72.17;101371.84;5055121;28;20116;-77
2022/06/29 04:23:12;;;;;;;6.55;5.35;;;;;;;15.63;72.27;101374.53;5048667;28;20534;-77
2022/06/29 04:25:38;;;;;;;7.78;5.80;;;;;;;15.67;72.12;101370.59;5055050;28;20046;-77
2022/06/29 04:28:06;;;;;;;7.57;5.38;;;;;;;15.67;72.06;101372.41;5054767;28;20498;-77
2022/06/29 04:30:33;;;;;;;9.23;5.65;;;;;;;15.72;72.46;101370.16;5055096;28;20024;-77
2022/06/29 04:32:58;;;;;;;8.43;5.78;;;;;;;15.70;72.13;101359.63;5053467;28;20525;-77
2022/06/29 04:35:23;;;;;;;9.27;5.97;;;;;;;15.76;71.61;101363.59;5054973;28;20108;-77
2022/06/29 04:37:49;;;;;;;8.13;6.40;;;;;;;15.78;71.63;101356.25;5055111;28;20068;-77
2022/06/29 04:40:14;;;;;;;8.43;5.90;;;;;;;15.84;71.95;101373.63;5054597;28;20575;-77
2022/06/29 04:42:39;;;;;;;8.43;5.82;;;;;;;15.88;71.62;101367.81;5054491;28;20029;-77
2022/06/29 04:45:05;;;;;;;10.18;6.68;;;;;;;15.95;72.08;101361.91;5053336;28;20021;-77
2022/06/29 04:47:30;;;;;;;8.20;6.05;;;;;;;15.99;71.27;101369.53;5053071;28;20029;-77
2022/06/29 04:49:55;;;;;;;12.85;6.28;;;;;;;16.09;71.65;101362.34;5054362;28;20032;-77
2022/06/29 04:52:21;;;;;;;9.05;5.70;;;;;;;16.16;71.20;101356.44;5054155;28;20104;-77
2022/06/29 04:54:46;;;;;;;6.63;5.68;;;;;;;16.27;71.61;101365.16;5054423;28;20499;-77
2022/06/29 04:57:12;;;;;;;9.55;6.07;;;;;;;16.38;70.95;101358.81;5054623;28;20026;-77
2022/06/29 04:59:39;;;;;;;8.25;5.45;;;;;;;16.51;69.72;101357.66;5054423;28;20033;-77
2022/06/29 05:02:04;;;;;;;7.72;5.50;;;;;;;16.63;70.79;101373.44;5053974;28;20112;-78
2022/06/29 05:04:32;;;;;;;7.20;5.47;;;;;;;16.71;68.99;101364.66;5040295;28;20137;-77
2022/06/29 05:06:58;;;;;;;12.32;6.53;;;;;;;16.83;68.61;101362.66;5054469;28;20055;-77
2022/06/29 05:09:23;;;;;;;7.72;5.70;;;;;;;16.99;67.69;101362.09;5054069;28;20107;-77
2022/06/29 05:11:48;;;;;;;7.95;4.90;;;;;;;17.10;67.23;101356.53;5052579;28;20104;-78
2022/06/29 05:14:16;;;;;;;8.13;5.40;;;;;;;17.19;66.83;101357.50;5053859;28;20029;-77
2022/06/29 05:16:41;;;;;;;10.60;5.32;;;;;;;17.30;66.30;101353.75;5053755;28;20642;-77
2022/06/29 05:19:07;;;;;;;10.48;5.45;;;;;;;17.38;65.76;101345.78;5053851;28;20029;-77
2022/06/29 05:21:32;;;;;;;7.53;5.32;;;;;;;17.43;65.82;101348.88;5053578;28;20442;-77
2022/06/29 05:23:57;;;;;;;7.00;5.17;;;;;;;17.52;65.61;101353.34;5053922;28;20025;-77
2022/06/29 05:26:24;;;;;;;8.75;5.07;;;;;;;17.60;66.00;101349.06;5053954;28;20331;-78
2022/06/29 05:28:50;;;;;;;8.40;5.05;;;;;;;17.67;65.46;101342.06;5042687;28;20025;-77
2022/06/29 05:31:17;;;;;;;5.82;4.85;;;;;;;17.80;66.38;101339.03;5054053;28;20036;-77
2022/06/29 05:33:43;;;;;;;8.32;5.22;;;;;;;17.97;66.44;101332.84;5052928;28;20104;-78
2022/06/29 05:36:09;;;;;;;8.32;5.00;;;;;;;18.19;65.21;101334.22;5053940;28;20166;-78
2022/06/29 05:38:37;;;;;;;10.15;5.20;;;;;;;18.39;63.69;101340.25;5053102;28;20506;-81
2022/06/29 05:41:03;;;;;;;9.68;4.63;;;;;;;18.61;63.84;101340.72;5053814;28;20099;-81
2022/06/29 05:43:30;;;;;;;7.65;4.63;;;;;;;18.83;63.10;101336.69;5053143;28;20029;-81
2022/06/29 05:45:57;;;;;;;8.20;4.38;;;;;;;19.09;62.14;101339.34;5052233;28;20017;-81
2022/06/29 05:48:22;;;;;;;8.57;4.72;;;;;;;19.23;60.89;101330.66;5053781;28;20083;-81
2022/06/29 05:50:48;;;;;;;8.93;5.25;;;;;;;19.48;60.74;101338.78;5054127;28;20028;-79
2022/06/29 05:53:16;;;;;;;11.60;5.05;;;;;;;19.65;59.52;101331.63;5052853;28;20027;-80
2022/06/29 05:55:41;;;;;;;9.37;4.77;;;;;;;19.91;59.30;101325.28;5053307;28;20037;-80
2022/06/29 05:58:11;;;;;;;13.57;5.03;;;;;;;20.12;59.34;101332.88;5052621;28;20067;-81
2022/06/29 06:00:36;;;;;;;9.10;4.53;;;;;;;20.37;59.65;101330.16;5054064;28;20068;-82
2022/06/29 06:03:02;;;;;;;9.63;4.60;;;;;;;20.59;56.80;101326.75;5054097;28;20060;-82
2022/06/29 06:05:27;;;;;;;7.57;4.47;;;;;;;20.88;55.93;101328.06;5053302;28;20114;-82
2022/06/29 06:07:52;;;;;;;9.87;4.00;;;;;;;21.06;54.52;101339.47;5053746;28;20448;-82
2022/06/29 06:10:18;;;;;;;6.28;4.07;;;;;;;21.33;55.71;101339.19;5053867;28;20282;-82
2022/06/29 06:12:43;;;;;;;9.75;3.53;;;;;;;21.52;53.81;101337.97;5053822;28;20037;-82
2022/06/29 06:15:09;;;;;;;9.13;3.27;;;;;;;21.65;53.56;101340.06;5053699;28;20159;-82
2022/06/29 06:17:34;;;;;;;6.80;3.10;;;;;;;21.87;53.26;101338.41;5054982;28;20284;-82
2022/06/29 06:19:59;;;;;;;8.05;2.75;;;;;;;22.07;51.23;101338.75;5046585;28;20021;-82
2022/06/29 06:22:25;;;;;;;5.38;2.60;;;;;;;22.23;50.15;101335.06;5048951;28;20526;-82
2022/06/29 06:24:50;;;;;;;4.40;2.40;;;;;;;22.26;48.89;101330.13;5056900;28;20044;-82
2022/06/29 06:27:16;;;;;;;10.23;2.83;;;;;;;22.50;49.17;101330.97;5054659;28;20476;-83
2022/06/29 06:29:42;;;;;;;5.50;2.28;;;;;;;22.75;50.26;101333.41;5054126;28;20025;-82
2022/06/29 06:32:08;;;;;;;6.25;2.35;;;;;;;22.88;47.84;101326.31;5054518;28;20021;-82
2022/06/29 06:34:33;;;;;;;6.95;2.30;;;;;;;23.00;46.21;101329.41;5056863;28;20486;-81
2022/06/29 06:36:59;;;;;;;6.05;3.10;;;;;;;23.19;47.31;101332.59;5055427;28;20024;-81
2022/06/29 06:39:25;;;;;;;5.38;2.38;;;;;;;23.45;47.06;101335.63;5054536;28;20506;-82
2022/06/29 06:41:50;;;;;;;4.82;2.45;;;;;;;23.50;45.70;101329.63;5054357;28;20029;-80
2022/06/29 06:44:15;;;;;;;3.33;2.10;;;;;;;23.68;45.88;101325.63;5053366;28;20025;-81
2022/06/29 06:46:41;;;;;;;4.20;2.22;;;;;;;23.81;45.57;101333.91;5053723;28;20744;-80
2022/06/29 06:49:08;;;;;;;3.75;2.20;;;;;;;23.98;47.05;101326.38;5053704;28;20430;-81
2022/06/29 06:51:36;;;;;;;4.03;2.10;;;;;;;24.26;45.10;101329.13;5053124;28;20013;-80
2022/06/29 06:54:01;;;;;;;4.80;2.20;;;;;;;24.50;43.79;101327.84;5053155;28;20091;-81
2022/06/29 06:56:26;;;;;;;6.57;2.30;;;;;;;24.80;43.53;101330.38;5053163;28;20029;-81
2022/06/29 06:58:51;;;;;;;6.87;2.70;;;;;;;24.92;42.29;101331.47;5053110;28;20352;-82
2022/06/29 07:01:17;;;;;;;4.13;2.03;;;;;;;25.02;41.46;101331.13;5052958;28;20283;-81
2022/06/29 07:03:42;;;;;;;7.18;2.58;;;;;;;25.11;41.45;101334.50;5052855;28;20058;-81
2022/06/29 07:06:09;;;;;;;5.13;2.38;;;;;;;25.14;42.42;101311.53;5052274;28;20051;-81
2022/06/29 07:08:37;;;;;;;4.55;1.80;;;;;;;25.39;41.34;101331.72;5062569;28;20475;-81
2022/06/29 07:11:05;;;;;;;4.65;2.13;;;;;;;25.61;41.47;101337.88;5047030;28;20060;-81
2022/06/29 07:13:33;;;;;;;5.05;2.15;;;;;;;25.90;41.77;101330.38;5049781;28;20033;-81
2022/06/29 07:15:58;;;;;;;6.80;1.95;;;;;;;26.08;40.31;101326.22;5052176;28;20108;-81
2022/06/29 07:18:24;;;;;;;4.65;2.20;;;;;;;26.37;39.20;101320.34;5042463;28;20059;-81
2022/06/29 07:20:49;;;;;;;2.55;1.80;;;;;;;26.47;37.81;101325.38;5057145;28;20108;-81
2022/06/29 07:23:14;;;;;;;4.87;2.10;;;;;;;26.61;38.81;101319.91;5055431;28;20386;-82
2022/06/29 07:25:40;;;;;;;6.25;1.83;;;;;;;26.85;38.89;101324.72;5056645;28;20284;-81
2022/06/29 07:28:05;;;;;;;4.07;2.17;;;;;;;27.16;37.49;101319.56;5055758;28;20025;-82
2022/06/29 07:30:31;;;;;;;6.55;2.38;;;;;;;27.30;36.90;101326.66;5053113;28;20036;-82
2022/06/29 07:32:56;;;;;;;2.92;2.05;;;;;;;27.31;36.96;101325.59;5055434;28;20027;-82
2022/06/29 07:35:21;;;;;;;10.00;1.87;;;;;;;27.55;36.06;101317.72;5055582;28;20021;-82
2022/06/29 07:37:47;;;;;;;6.27;2.07;;;;;;;27.72;35.69;101313.41;5055375;28;20294;-83
2022/06/29 07:40:12;;;;;;;5.33;1.70;;;;;;;27.70;34.65;101323.72;5055865;28;20279;-83
2022/06/29 07:42:38;;;;;;;2.88;1.65;;;;;;;28.05;36.22;101320.56;5055866;28;20287;-82
2022/06/29 07:45:05;;;;;;;4.72;1.63;;;;;;;28.18;34.88;101314.16;5055659;28;20037;-82
2022/06/29 07:47:31;;;;;;;3.70;1.65;;;;;;;28.35;34.40;101304.31;5056578;28;20033;-83
2022/06/29 07:49:58;;;;;;;3.42;1.40;;;;;;;28.39;35.12;101300.06;5057545;28;20061;-83
2022/06/29 07:52:23;;;;;;;2.55;1.38;;;;;;;28.68;33.42;101300.44;5056832;28;20036;-83
2022/06/29 07:54:48;;;;;;;4.68;1.75;;;;;;;28.69;34.79;101304.00;5055241;28;20031;-83
2022/06/29 07:57:13;;;;;;;5.88;2.10;;;;;;;28.98;33.74;101303.25;5055913;28;20056;-82
2022/06/29 07:59:39;;;;;;;2.47;1.70;;;;;;;29.17;32.76;101303.25;5056522;28;20029;-80
2022/06/29 08:02:04;;;;;;;4.50;1.52;;;;;;;29.15;34.80;101297.16;5055037;28;20357;-81
2022/06/29 08:04:30;;;;;;;3.88;1.75;;;;;;;29.32;32.81;101294.63;5056091;28;20049;-81
2022/06/29 08:06:55;;;;;;;3.40;1.53;;;;;;;29.55;33.17;101293.88;5055481;28;20110;-81
2022/06/29 08:09:20;;;;;;;2.22;1.13;;;;;;;29.66;32.31;101290.34;5055303;28;20306;-80
2022/06/29 08:11:46;;;;;;;1.20;1.10;;;;;;;29.97;32.61;101296.63;5055320;28;20079;-81
2022/06/29 08:14:11;;;;;;;1.55;1.23;;;;;;;30.15;30.50;101289.38;5044467;28;20492;-81
2022/06/29 08:16:37;;;;;;;1.77;1.13;;;;;;;30.33;32.54;101286.50;5035970;28;20032;-81
2022/06/29 08:19:02;;;;;;;2.37;1.30;;;;;;;30.64;31.54;101292.69;5035700;28;20276;-81
2022/06/29 08:21:28;;;;;;;5.10;1.50;;;;;;;30.67;30.85;101296.88;5036038;28;20030;-82
2022/06/29 08:23:53;;;;;;;3.73;1.53;;;;;;;30.73;30.68;101283.03;5055404;28;20025;-82
2022/06/29 08:26:18;;;;;;;3.50;1.50;;;;;;;31.03;31.81;101287.53;5055355;28;20337;-82
2022/06/29 08:28:43;;;;;;;2.70;1.70;;;;;;;31.06;30.14;101283.44;5055104;28;20653;-81
2022/06/29 08:31:09;;;;;;;2.70;1.20;;;;;;;31.25;28.75;101289.59;5055294;28;20115;-81
2022/06/29 08:33:34;;;;;;;3.95;1.30;;;;;;;31.30;28.88;101285.03;5055334;28;20329;-81
2022/06/29 08:35:59;;;;;;;4.13;1.40;;;;;;;31.22;28.39;101279.91;5055159;28;20108;-81
2022/06/29 08:38:25;;;;;;;4.70;1.40;;;;;;;31.28;29.44;101280.88;5057240;28;20309;-81
2022/06/29 08:40:51;;;;;;;3.67;1.10;;;;;;;31.40;27.52;101281.63;5056103;28;20036;-82
2022/06/29 08:43:19;;;;;;;4.07;1.30;;;;;;;31.54;29.86;101284.94;5055124;28;20385;-81
2022/06/29 08:45:47;;;;;;;3.00;1.52;;;;;;;31.72;29.90;101276.47;5035163;28;20037;-82
2022/06/29 08:48:14;;;;;;;2.73;1.00;;;;;;;31.92;27.69;101280.63;5047512;28;20033;-81
2022/06/29 08:50:43;;;;;;;1.58;1.00;;;;;;;31.82;28.17;101275.78;5040722;28;20104;-81
2022/06/29 08:53:12;;;;;;;1.00;0.90;;;;;;;32.09;27.95;101272.41;5054843;28;20029;-81
2022/06/29 08:55:43;;;;;;;4.25;1.65;;;;;;;31.87;29.11;101278.63;5054694;28;20025;-81
2022/06/29 08:58:20;;;;;;;3.60;1.27;;;;;;;32.12;28.54;101277.41;5054532;28;20037;-80
2022/06/29 09:00:46;;;;;;;3.63;1.10;;;;;;;32.28;28.60;101279.28;5054720;28;20091;-82
2022/06/29 09:03:14;;;;;;;3.45;1.30;;;;;;;32.17;27.71;101274.72;5055145;28;20050;-82
2022/06/29 09:05:39;;;;;;;3.83;1.23;;;;;;;32.11;29.43;101273.00;5055146;28;20056;-82
2022/06/29 09:08:04;;;;;;;5.65;1.40;;;;;;;31.91;28.29;101270.75;5053248;28;20029;-81
2022/06/29 09:10:30;;;;;;;2.58;1.05;;;;;;;31.89;28.17;101278.38;5054418;28;20028;-81
2022/06/29 09:12:58;;;;;;;3.97;1.33;;;;;;;31.78;28.36;101273.81;5040882;28;20025;-82
2022/06/29 09:15:32;;;;;;;4.00;1.05;;;;;;;31.72;29.73;101281.13;5054977;28;20105;-82
2022/06/29 09:17:58;;;;;;;6.07;1.10;;;;;;;31.63;29.86;101275.22;5053900;28;20017;-82
2022/06/29 09:20:23;;;;;;;1.83;0.80;;;;;;;31.95;28.79;101269.13;5054742;28;20043;-82
2022/06/29 09:22:54;;;;;;;2.55;1.27;;;;;;;32.14;29.29;101271.66;5054465;28;20472;-82
2022/06/29 09:25:26;;;;;;;2.60;1.20;;;;;;;32.48;28.58;101274.34;5054433;28;20100;-82
2022/06/29 09:27:55;;;;;;;1.33;0.95;;;;;;;32.57;27.94;101278.31;5054834;28;20028;-82
2022/06/29 09:30:28;;;;;;;2.17;1.30;;;;;;;32.60;26.53;101278.63;5041092;28;20025;-82
2022/06/29 09:33:06;;;;;;;1.00;0.90;;;;;;;32.87;26.59;101264.13;5054465;28;20049;-82
2022/06/29 09:35:33;;;;;;;4.20;1.10;;;;;;;32.79;25.14;101270.09;5039380;28;20048;-81
2022/06/29 09:38:17;;;;;;;2.75;0.90;;;;;;;33.27;27.58;101262.94;5053209;28;20025;-82
2022/06/29 09:41:08;;;;;;;2.65;1.00;;;;;;;33.53;26.32;101268.72;5040165;28;20029;-81
2022/06/29 09:43:45;;;;;;;5.82;1.10;;;;;;;33.42;25.70;101266.97;5054098;28;20033;-81
2022/06/29 09:46:13;;;;;;;2.05;0.82;;;;;;;33.12;24.00;101269.09;5054146;28;20060;-81
2022/06/29 09:48:39;;;;;;;2.28;1.10;;;;;;;33.38;24.74;101267.47;5053629;28;20053;-81
2022/06/29 09:53:59;;;;;;;3.17;1.10;;;;;;;33.86;25.76;101264.91;5039805;28;20073;-82
2022/06/29 09:56:29;;;;;;;4.50;1.10;;;;;;;34.07;25.48;101262.28;5054061;28;20021;-81
2022/06/29 09:58:57;;;;;;;2.45;1.10;;;;;;;34.21;23.46;101263.50;5053906;28;20422;-82
2022/06/29 10:04:07;;;;;;;2.83;1.10;;;;;;;34.88;24.02;101258.34;5054239;28;20443;-82
2022/06/29 10:06:33;;;;;;;4.07;1.20;;;;;;;34.89;23.12;101256.41;5053484;28;20045;-81
2022/06/29 10:08:58;;;;;;;2.33;0.95;;;;;;;34.84;22.76;101248.91;5053909;28;20057;-82
2022/06/29 10:14:45;;;;;;;2.63;0.95;;;;;;;34.90;23.35;101258.06;5054230;28;20563;-81
2022/06/29 10:17:26;;;;;;;2.88;1.42;;;;;;;34.78;23.92;101248.09;5053587;28;20452;-82
2022/06/29 10:19:51;;;;;;;3.28;0.90;;;;;;;34.89;22.89;101248.13;5052272;28;20021;-81
2022/06/29 10:22:16;;;;;;;1.53;1.00;;;;;;;34.71;23.81;101244.72;5053709;28;20029;-82
2022/06/29 10:25:02;;;;;;;2.67;1.20;;;;;;;34.88;23.19;101244.53;5053592;28;20056;-82
2022/06/29 10:27:27;;;;;;;3.40;0.90;;;;;;;34.70;22.28;101234.78;5056471;28;20025;-82
2022/06/29 10:30:23;;;;;;;3.00;1.03;;;;;;;34.69;24.70;101235.91;5059220;28;20514;-82
2022/06/29 10:32:49;;;;;;;3.25;1.00;;;;;;;34.50;24.25;101229.19;5055939;28;20303;-84
2022/06/29 10:35:18;;;;;;;2.40;1.08;;;;;;;34.30;23.39;101239.03;5055544;28;20025;-84
2022/06/29 10:37:52;;;;;;;1.45;0.98;;;;;;;34.35;23.75;101239.03;5054719;28;20021;-83
2022/06/29 10:40:21;;;;;;;2.30;0.85;;;;;;;34.36;24.26;101231.59;5058988;28;20443;-87
2022/06/29 10:45:36;;;;;;;4.80;1.35;;;;;;;34.22;24.38;101234.00;5063358;28;20039;-88
2022/06/29 10:48:06;;;;;;;1.60;1.20;;;;;;;34.44;23.09;101225.56;5061477;28;20025;-85
2022/06/29 10:50:32;;;;;;;2.42;1.27;;;;;;;34.10;23.50;101221.22;5057949;28;20108;-86
2022/06/29 10:53:08;;;;;;;1.90;0.90;;;;;;;34.11;25.17;101211.06;5050430;28;20029;-86
2022/06/29 10:55:39;;;;;;;2.75;1.02;;;;;;;34.13;24.93;101211.59;5059305;28;20037;-87
2022/06/29 10:58:04;;;;;;;4.38;1.20;;;;;;;34.35;23.27;101207.88;5061009;28;20040;-87
2022/06/29 11:00:33;;;;;;;4.15;1.30;;;;;;;34.48;22.60;101201.88;5045319;28;20029;-86
2022/06/29 11:03:07;;;;;;;1.92;0.70;;;;;;;34.68;23.52;101206.63;5048878;28;20024;-86
2022/06/29 11:05:34;;;;;;;1.40;1.05;;;;;;;34.58;22.81;101204.66;5058864;28;20049;-87
2022/06/29 11:13:29;;;;;;;1.98;1.00;;;;;;;34.21;23.29;101205.63;5058694;28;20155;-85
2022/06/29 11:15:56;;;;;;;1.83;1.08;;;;;;;34.62;22.76;101204.97;5058536;28;20037;-84
2022/06/29 11:18:29;;;;;;;2.35;0.90;;;;;;;34.73;24.82;101212.19;5057340;28;20024;-84
2022/06/29 11:21:02;;;;;;;2.25;0.93;;;;;;;34.61;23.18;101208.84;5057326;28;20033;-86
2022/06/29 11:23:29;;;;;;;4.20;1.20;;;;;;;34.44;25.37;101192.47;5055735;28;20059;-85
2022/06/29 11:25:55;;;;;;;2.80;1.20;;;;;;;34.26;25.67;101208.41;5057275;28;20418;-86
2022/06/29 11:28:23;;;;;;;2.53;1.08;;;;;;;34.13;24.99;101199.75;5058964;28;20029;-85
2022/06/29 11:31:02;;;;;;;2.35;1.27;;;;;;;34.02;25.48;101193.34;5059246;28;20025;-85
2022/06/29 11:33:32;;;;;;;1.48;0.98;;;;;;;33.90;24.37;101199.88;5060722;28;20078;-87
2022/06/29 11:36:07;;;;;;;1.45;1.00;;;;;;;33.68;24.41;101186.25;5056593;28;20029;-85
2022/06/29 11:38:36;;;;;;;2.22;1.13;;;;;;;33.41;23.86;101188.19;5057459;28;20037;-85
2022/06/29 11:41:10;;;;;;;1.52;1.27;;;;;;;33.29;25.17;101182.84;5057362;28;20025;-84
2022/06/29 11:43:35;;;;;;;1.92;0.90;;;;;;;33.29;25.39;101191.13;5057076;28;20037;-83
2022/06/29 11:46:01;;;;;;;5.47;1.10;;;;;;;33.15;27.83;101194.31;5056446;28;20021;-83
2022/06/29 11:48:28;;;;;;;2.28;1.40;;;;;;;33.07;24.71;101180.97;5055432;28;20025;-84